sensor_id;sensor_type;location;lat;lon;timestamp;temperature;humidity
69359;HTU21D;56520;49.066;8.660;2023-08-20T00:02:23;22.49;88.88
69359;HTU21D;56520;49.066;8.660;2023-08-20T00:04:49;22.47;89.03
69359;HTU21D;56520;49.066;8.660;2023-08-20T00:07:16;22.46;89.26
69359;HTU21D;56520;49.066;8.660;2023-08-20T00:09:43;22.44;89.21
69359;HTU21D;56520;49.066;8.660;2023-08-20T00:12:09;22.42;89.28
69359;HTU21D;56520;49.066;8.660;2023-08-20T00:17:21;22.39;89.25
69359;HTU21D;56520;49.066;8.660;2023-08-20T00:19:48;22.38;89.23
69359;HTU21D;56520;49.066;8.660;2023-08-20T00:22:14;22.37;89.64
69359;HTU21D;56520;49.066;8.660;2023-08-20T00:24:40;22.34;89.50
69359;HTU21D;56520;49.066;8.660;2023-08-20T00:27:06;22.33;89.56
69359;HTU21D;56520;49.066;8.660;2023-08-20T00:29:31;22.31;89.48
69359;HTU21D;56520;49.066;8.660;2023-08-20T00:31:56;22.28;89.52
69359;HTU21D;56520;49.066;8.660;2023-08-20T00:34:22;22.25;89.54
69359;HTU21D;56520;49.066;8.660;2023-08-20T00:36:47;22.23;89.66
69359;HTU21D;56520;49.066;8.660;2023-08-20T00:39:12;22.19;89.82
69359;HTU21D;56520;49.066;8.660;2023-08-20T00:41:38;22.17;89.76
69359;HTU21D;56520;49.066;8.660;2023-08-20T00:44:03;22.13;89.81
69359;HTU21D;56520;49.066;8.660;2023-08-20T00:46:29;22.12;90.02
69359;HTU21D;56520;49.066;8.660;2023-08-20T00:48:56;22.10;90.39
69359;HTU21D;56520;49.066;8.660;2023-08-20T00:51:22;22.06;90.39
69359;HTU21D;56520;49.066;8.660;2023-08-20T00:53:48;22.02;90.35
69359;HTU21D;56520;49.066;8.660;2023-08-20T00:56:15;21.98;90.57
69359;HTU21D;56520;49.066;8.660;2023-08-20T00:58:41;21.94;90.73
69359;HTU21D;56520;49.066;8.660;2023-08-20T01:01:06;21.90;90.79
69359;HTU21D;56520;49.066;8.660;2023-08-20T01:03:32;21.89;90.88
69359;HTU21D;56520;49.066;8.660;2023-08-20T01:09:08;21.83;90.93
69359;HTU21D;56520;49.066;8.660;2023-08-20T01:11:42;21.82;91.18
69359;HTU21D;56520;49.066;8.660;2023-08-20T01:14:17;21.78;91.15
69359;HTU21D;56520;49.066;8.660;2023-08-20T01:16:46;21.77;91.65
69359;HTU21D;56520;49.066;8.660;2023-08-20T01:19:16;21.75;91.66
69359;HTU21D;56520;49.066;8.660;2023-08-20T01:30:06;21.64;91.48
69359;HTU21D;56520;49.066;8.660;2023-08-20T01:32:33;21.61;91.50
69359;HTU21D;56520;49.066;8.660;2023-08-20T01:35:00;21.58;91.72
69359;HTU21D;56520;49.066;8.660;2023-08-20T01:37:25;21.53;91.78
69359;HTU21D;56520;49.066;8.660;2023-08-20T01:39:51;21.49;91.83
69359;HTU21D;56520;49.066;8.660;2023-08-20T01:42:17;21.49;91.95
69359;HTU21D;56520;49.066;8.660;2023-08-20T01:44:43;21.46;92.03
69359;HTU21D;56520;49.066;8.660;2023-08-20T01:47:08;21.44;92.37
69359;HTU21D;56520;49.066;8.660;2023-08-20T01:49:37;21.40;92.20
69359;HTU21D;56520;49.066;8.660;2023-08-20T01:52:02;21.39;92.40
69359;HTU21D;56520;49.066;8.660;2023-08-20T01:54:29;21.36;92.30
69359;HTU21D;56520;49.066;8.660;2023-08-20T01:56:54;21.34;92.44
69359;HTU21D;56520;49.066;8.660;2023-08-20T01:59:21;21.32;92.59
69359;HTU21D;56520;49.066;8.660;2023-08-20T02:01:47;21.28;92.66
69359;HTU21D;56520;49.066;8.660;2023-08-20T02:04:12;21.24;92.78
69359;HTU21D;56520;49.066;8.660;2023-08-20T02:06:37;21.22;93.01
69359;HTU21D;56520;49.066;8.660;2023-08-20T02:09:03;21.20;93.14
69359;HTU21D;56520;49.066;8.660;2023-08-20T02:11:36;21.16;93.10
69359;HTU21D;56520;49.066;8.660;2023-08-20T02:14:02;21.16;93.17
69359;HTU21D;56520;49.066;8.660;2023-08-20T02:16:28;21.13;93.30
69359;HTU21D;56520;49.066;8.660;2023-08-20T02:18:53;21.09;93.46
69359;HTU21D;56520;49.066;8.660;2023-08-20T02:21:19;21.05;93.59
69359;HTU21D;56520;49.066;8.660;2023-08-20T02:23:44;21.01;93.71
69359;HTU21D;56520;49.066;8.660;2023-08-20T02:26:10;20.96;93.75
69359;HTU21D;56520;49.066;8.660;2023-08-20T02:28:35;20.94;93.86
69359;HTU21D;56520;49.066;8.660;2023-08-20T02:31:04;20.92;94.04
69359;HTU21D;56520;49.066;8.660;2023-08-20T02:33:29;20.88;94.10
69359;HTU21D;56520;49.066;8.660;2023-08-20T02:35:55;20.87;94.14
69359;HTU21D;56520;49.066;8.660;2023-08-20T02:38:20;20.84;94.26
69359;HTU21D;56520;49.066;8.660;2023-08-20T02:40:46;20.79;94.13
69359;HTU21D;56520;49.066;8.660;2023-08-20T02:43:11;20.79;94.14
69359;HTU21D;56520;49.066;8.660;2023-08-20T02:45:43;20.76;94.16
69359;HTU21D;56520;49.066;8.660;2023-08-20T02:48:08;20.75;94.16
69359;HTU21D;56520;49.066;8.660;2023-08-20T02:50:35;20.75;94.15
69359;HTU21D;56520;49.066;8.660;2023-08-20T02:53:03;20.76;94.11
69359;HTU21D;56520;49.066;8.660;2023-08-20T02:55:30;20.75;94.17
69359;HTU21D;56520;49.066;8.660;2023-08-20T02:57:56;20.73;94.16
69359;HTU21D;56520;49.066;8.660;2023-08-20T03:00:21;20.74;94.15
69359;HTU21D;56520;49.066;8.660;2023-08-20T03:02:46;20.73;94.33
69359;HTU21D;56520;49.066;8.660;2023-08-20T03:05:12;20.71;94.27
69359;HTU21D;56520;49.066;8.660;2023-08-20T03:07:37;20.69;94.34
69359;HTU21D;56520;49.066;8.660;2023-08-20T03:10:03;20.66;94.36
69359;HTU21D;56520;49.066;8.660;2023-08-20T03:12:29;20.63;94.33
69359;HTU21D;56520;49.066;8.660;2023-08-20T03:15:03;20.62;94.29
69359;HTU21D;56520;49.066;8.660;2023-08-20T03:17:29;20.61;94.25
69359;HTU21D;56520;49.066;8.660;2023-08-20T03:19:59;20.59;94.17
69359;HTU21D;56520;49.066;8.660;2023-08-20T03:22:25;20.56;94.11
69359;HTU21D;56520;49.066;8.660;2023-08-20T03:24:53;20.55;94.08
69359;HTU21D;56520;49.066;8.660;2023-08-20T03:27:19;20.51;94.01
69359;HTU21D;56520;49.066;8.660;2023-08-20T03:29:45;20.46;93.95
69359;HTU21D;56520;49.066;8.660;2023-08-20T03:32:11;20.44;93.98
69359;HTU21D;56520;49.066;8.660;2023-08-20T03:34:36;20.41;94.01
69359;HTU21D;56520;49.066;8.660;2023-08-20T03:37:02;20.42;93.98
69359;HTU21D;56520;49.066;8.660;2023-08-20T03:39:28;20.41;93.95
69359;HTU21D;56520;49.066;8.660;2023-08-20T03:41:53;20.37;93.92
69359;HTU21D;56520;49.066;8.660;2023-08-20T03:44:19;20.37;93.90
69359;HTU21D;56520;49.066;8.660;2023-08-20T03:46:44;20.35;93.88
69359;HTU21D;56520;49.066;8.660;2023-08-20T03:49:10;20.33;93.85
69359;HTU21D;56520;49.066;8.660;2023-08-20T03:51:35;20.33;93.83
69359;HTU21D;56520;49.066;8.660;2023-08-20T03:54:01;20.29;93.85
69359;HTU21D;56520;49.066;8.660;2023-08-20T03:56:26;20.25;93.85
69359;HTU21D;56520;49.066;8.660;2023-08-20T03:58:52;20.22;93.88
69359;HTU21D;56520;49.066;8.660;2023-08-20T04:01:18;20.24;93.91
69359;HTU21D;56520;49.066;8.660;2023-08-20T04:03:45;20.21;93.95
69359;HTU21D;56520;49.066;8.660;2023-08-20T04:06:11;20.21;93.95
69359;HTU21D;56520;49.066;8.660;2023-08-20T04:08:36;20.19;93.95
69359;HTU21D;56520;49.066;8.660;2023-08-20T04:11:02;20.18;93.95
69359;HTU21D;56520;49.066;8.660;2023-08-20T04:13:29;20.16;93.90
69359;HTU21D;56520;49.066;8.660;2023-08-20T04:15:54;20.10;93.80
69359;HTU21D;56520;49.066;8.660;2023-08-20T04:18:22;20.06;93.76
69359;HTU21D;56520;49.066;8.660;2023-08-20T04:20:52;20.01;93.79
69359;HTU21D;56520;49.066;8.660;2023-08-20T04:23:18;20.01;93.86
69359;HTU21D;56520;49.066;8.660;2023-08-20T04:25:44;19.99;93.89
69359;HTU21D;56520;49.066;8.660;2023-08-20T04:28:11;19.98;93.98
69359;HTU21D;56520;49.066;8.660;2023-08-20T04:30:36;19.97;93.99
69359;HTU21D;56520;49.066;8.660;2023-08-20T04:33:02;19.95;93.98
69359;HTU21D;56520;49.066;8.660;2023-08-20T04:35:30;19.96;93.92
69359;HTU21D;56520;49.066;8.660;2023-08-20T04:37:56;19.96;94.04
69359;HTU21D;56520;49.066;8.660;2023-08-20T04:40:21;19.95;94.15
69359;HTU21D;56520;49.066;8.660;2023-08-20T04:42:46;19.95;94.46
69359;HTU21D;56520;49.066;8.660;2023-08-20T04:45:12;19.92;94.32
69359;HTU21D;56520;49.066;8.660;2023-08-20T04:47:38;19.94;94.29
69359;HTU21D;56520;49.066;8.660;2023-08-20T04:50:04;19.97;94.42
69359;HTU21D;56520;49.066;8.660;2023-08-20T04:52:32;19.99;94.41
69359;HTU21D;56520;49.066;8.660;2023-08-20T04:54:58;20.03;94.44
69359;HTU21D;56520;49.066;8.660;2023-08-20T04:57:23;20.07;94.88
69359;HTU21D;56520;49.066;8.660;2023-08-20T04:59:51;20.09;94.97
69359;HTU21D;56520;49.066;8.660;2023-08-20T05:02:17;20.09;94.90
69359;HTU21D;56520;49.066;8.660;2023-08-20T05:04:42;20.10;94.81
69359;HTU21D;56520;49.066;8.660;2023-08-20T05:07:08;20.10;94.70
69359;HTU21D;56520;49.066;8.660;2023-08-20T05:09:34;20.12;94.70
69359;HTU21D;56520;49.066;8.660;2023-08-20T05:11:59;20.13;94.65
69359;HTU21D;56520;49.066;8.660;2023-08-20T05:14:25;20.16;94.64
69359;HTU21D;56520;49.066;8.660;2023-08-20T05:16:50;20.20;94.59
69359;HTU21D;56520;49.066;8.660;2023-08-20T05:19:16;20.24;94.57
69359;HTU21D;56520;49.066;8.660;2023-08-20T05:21:41;20.28;94.52
69359;HTU21D;56520;49.066;8.660;2023-08-20T05:24:06;20.30;94.47
69359;HTU21D;56520;49.066;8.660;2023-08-20T05:26:32;20.35;94.41
69359;HTU21D;56520;49.066;8.660;2023-08-20T05:28:57;20.40;94.37
69359;HTU21D;56520;49.066;8.660;2023-08-20T05:31:23;20.43;94.35
69359;HTU21D;56520;49.066;8.660;2023-08-20T05:33:48;20.47;94.38
69359;HTU21D;56520;49.066;8.660;2023-08-20T05:36:19;20.49;94.30
69359;HTU21D;56520;49.066;8.660;2023-08-20T05:38:45;20.54;94.27
69359;HTU21D;56520;49.066;8.660;2023-08-20T05:41:10;20.59;94.27
69359;HTU21D;56520;49.066;8.660;2023-08-20T05:43:35;20.62;94.28
69359;HTU21D;56520;49.066;8.660;2023-08-20T05:46:04;20.66;94.29
69359;HTU21D;56520;49.066;8.660;2023-08-20T05:48:29;20.72;94.23
69359;HTU21D;56520;49.066;8.660;2023-08-20T05:50:55;20.78;94.17
69359;HTU21D;56520;49.066;8.660;2023-08-20T05:53:21;20.87;94.13
69359;HTU21D;56520;49.066;8.660;2023-08-20T05:55:47;20.95;94.01
69359;HTU21D;56520;49.066;8.660;2023-08-20T05:58:12;21.05;93.89
69359;HTU21D;56520;49.066;8.660;2023-08-20T06:00:38;21.15;93.72
69359;HTU21D;56520;49.066;8.660;2023-08-20T06:03:03;21.24;93.59
69359;HTU21D;56520;49.066;8.660;2023-08-20T06:05:29;21.30;93.44
69359;HTU21D;56520;49.066;8.660;2023-08-20T06:07:55;21.37;93.41
69359;HTU21D;56520;49.066;8.660;2023-08-20T06:10:20;21.39;92.92
69359;HTU21D;56520;49.066;8.660;2023-08-20T06:12:48;21.45;93.05
69359;HTU21D;56520;49.066;8.660;2023-08-20T06:15:14;21.51;93.04
69359;HTU21D;56520;49.066;8.660;2023-08-20T06:17:40;21.55;92.99
69359;HTU21D;56520;49.066;8.660;2023-08-20T06:20:05;21.61;92.94
69359;HTU21D;56520;49.066;8.660;2023-08-20T06:22:33;21.65;92.93
69359;HTU21D;56520;49.066;8.660;2023-08-20T06:24:58;21.73;92.95
69359;HTU21D;56520;49.066;8.660;2023-08-20T06:27:24;21.79;92.74
69359;HTU21D;56520;49.066;8.660;2023-08-20T06:29:49;21.85;92.65
69359;HTU21D;56520;49.066;8.660;2023-08-20T06:32:14;21.92;92.56
69359;HTU21D;56520;49.066;8.660;2023-08-20T06:34:40;21.99;92.46
69359;HTU21D;56520;49.066;8.660;2023-08-20T06:37:05;22.07;92.15
69359;HTU21D;56520;49.066;8.660;2023-08-20T06:39:31;22.12;91.69
69359;HTU21D;56520;49.066;8.660;2023-08-20T06:41:56;22.17;91.72
69359;HTU21D;56520;49.066;8.660;2023-08-20T06:44:21;22.21;91.62
69359;HTU21D;56520;49.066;8.660;2023-08-20T06:46:47;22.22;91.40
69359;HTU21D;56520;49.066;8.660;2023-08-20T06:49:12;22.23;91.38
69359;HTU21D;56520;49.066;8.660;2023-08-20T06:51:38;22.25;91.38
69359;HTU21D;56520;49.066;8.660;2023-08-20T06:54:04;22.28;91.40
69359;HTU21D;56520;49.066;8.660;2023-08-20T06:56:31;22.28;91.31
69359;HTU21D;56520;49.066;8.660;2023-08-20T06:58:56;22.31;91.22
69359;HTU21D;56520;49.066;8.660;2023-08-20T07:01:24;22.34;91.21
69359;HTU21D;56520;49.066;8.660;2023-08-20T07:03:50;22.37;91.12
69359;HTU21D;56520;49.066;8.660;2023-08-20T07:06:15;22.40;91.13
69359;HTU21D;56520;49.066;8.660;2023-08-20T07:08:43;22.47;91.08
69359;HTU21D;56520;49.066;8.660;2023-08-20T07:11:09;22.51;90.98
69359;HTU21D;56520;49.066;8.660;2023-08-20T07:13:34;22.54;90.82
69359;HTU21D;56520;49.066;8.660;2023-08-20T07:15:59;22.58;90.53
69359;HTU21D;56520;49.066;8.660;2023-08-20T07:18:25;22.58;90.55
69359;HTU21D;56520;49.066;8.660;2023-08-20T07:20:50;22.60;90.52
69359;HTU21D;56520;49.066;8.660;2023-08-20T07:23:17;22.62;90.53
69359;HTU21D;56520;49.066;8.660;2023-08-20T07:25:43;22.66;90.48
69359;HTU21D;56520;49.066;8.660;2023-08-20T07:28:10;22.75;90.37
69359;HTU21D;56520;49.066;8.660;2023-08-20T07:30:35;22.80;89.28
69359;HTU21D;56520;49.066;8.660;2023-08-20T07:33:01;22.86;89.02
69359;HTU21D;56520;49.066;8.660;2023-08-20T07:35:27;22.94;88.76
69359;HTU21D;56520;49.066;8.660;2023-08-20T07:37:53;23.00;88.44
69359;HTU21D;56520;49.066;8.660;2023-08-20T07:40:18;23.10;88.36
69359;HTU21D;56520;49.066;8.660;2023-08-20T07:42:44;23.21;88.18
69359;HTU21D;56520;49.066;8.660;2023-08-20T07:45:10;23.30;88.02
69359;HTU21D;56520;49.066;8.660;2023-08-20T07:47:36;23.39;87.88
69359;HTU21D;56520;49.066;8.660;2023-08-20T07:50:02;23.46;87.57
69359;HTU21D;56520;49.066;8.660;2023-08-20T07:52:28;23.58;87.44
69359;HTU21D;56520;49.066;8.660;2023-08-20T07:54:53;23.72;87.21
69359;HTU21D;56520;49.066;8.660;2023-08-20T07:57:19;23.89;86.77
69359;HTU21D;56520;49.066;8.660;2023-08-20T07:59:44;24.05;86.40
69359;HTU21D;56520;49.066;8.660;2023-08-20T08:02:10;24.17;85.95
69359;HTU21D;56520;49.066;8.660;2023-08-20T08:04:36;24.29;85.70
69359;HTU21D;56520;49.066;8.660;2023-08-20T08:07:04;24.33;85.47
69359;HTU21D;56520;49.066;8.660;2023-08-20T08:09:31;24.39;85.33
69359;HTU21D;56520;49.066;8.660;2023-08-20T08:11:57;24.45;85.03
69359;HTU21D;56520;49.066;8.660;2023-08-20T08:14:23;24.53;84.64
69359;HTU21D;56520;49.066;8.660;2023-08-20T08:16:49;24.63;83.39
69359;HTU21D;56520;49.066;8.660;2023-08-20T08:19:15;24.83;83.58
69359;HTU21D;56520;49.066;8.660;2023-08-20T08:21:41;25.05;83.18
69359;HTU21D;56520;49.066;8.660;2023-08-20T08:24:08;25.21;82.84
69359;HTU21D;56520;49.066;8.660;2023-08-20T08:26:34;25.33;82.77
69359;HTU21D;56520;49.066;8.660;2023-08-20T08:29:04;25.49;82.46
69359;HTU21D;56520;49.066;8.660;2023-08-20T08:31:30;25.58;82.17
69359;HTU21D;56520;49.066;8.660;2023-08-20T08:33:55;25.59;81.62
69359;HTU21D;56520;49.066;8.660;2023-08-20T08:36:21;25.56;81.55
69359;HTU21D;56520;49.066;8.660;2023-08-20T08:38:46;25.54;81.54
69359;HTU21D;56520;49.066;8.660;2023-08-20T08:41:12;25.64;81.08
69359;HTU21D;56520;49.066;8.660;2023-08-20T08:43:39;25.75;80.43
69359;HTU21D;56520;49.066;8.660;2023-08-20T08:46:11;25.91;80.21
69359;HTU21D;56520;49.066;8.660;2023-08-20T08:48:40;26.08;78.74
69359;HTU21D;56520;49.066;8.660;2023-08-20T08:51:05;26.20;78.51
69359;HTU21D;56520;49.066;8.660;2023-08-20T08:53:34;26.31;78.08
69359;HTU21D;56520;49.066;8.660;2023-08-20T08:56:00;26.41;77.76
69359;HTU21D;56520;49.066;8.660;2023-08-20T08:58:25;26.50;77.21
69359;HTU21D;56520;49.066;8.660;2023-08-20T09:00:51;26.78;75.62
69359;HTU21D;56520;49.066;8.660;2023-08-20T09:03:16;27.02;75.89
69359;HTU21D;56520;49.066;8.660;2023-08-20T09:05:49;27.16;75.79
69359;HTU21D;56520;49.066;8.660;2023-08-20T09:08:27;27.35;75.16
69359;HTU21D;56520;49.066;8.660;2023-08-20T09:10:54;27.51;74.74
69359;HTU21D;56520;49.066;8.660;2023-08-20T09:13:33;27.63;73.99
69359;HTU21D;56520;49.066;8.660;2023-08-20T09:15:59;27.79;73.44
69359;HTU21D;56520;49.066;8.660;2023-08-20T09:18:24;28.00;72.87
69359;HTU21D;56520;49.066;8.660;2023-08-20T09:20:50;28.11;72.73
69359;HTU21D;56520;49.066;8.660;2023-08-20T09:23:16;28.30;72.83
69359;HTU21D;56520;49.066;8.660;2023-08-20T09:25:42;28.48;71.68
69359;HTU21D;56520;49.066;8.660;2023-08-20T09:28:08;28.58;71.32
69359;HTU21D;56520;49.066;8.660;2023-08-20T09:30:34;28.89;70.97
69359;HTU21D;56520;49.066;8.660;2023-08-20T09:33:04;28.98;69.45
69359;HTU21D;56520;49.066;8.660;2023-08-20T09:35:35;29.08;69.17
69359;HTU21D;56520;49.066;8.660;2023-08-20T09:38:03;29.15;66.27
69359;HTU21D;56520;49.066;8.660;2023-08-20T09:40:29;29.19;67.61
69359;HTU21D;56520;49.066;8.660;2023-08-20T09:42:55;29.41;67.39
69359;HTU21D;56520;49.066;8.660;2023-08-20T09:45:21;29.60;66.81
69359;HTU21D;56520;49.066;8.660;2023-08-20T09:47:48;29.73;66.30
69359;HTU21D;56520;49.066;8.660;2023-08-20T09:50:17;29.75;66.74
69359;HTU21D;56520;49.066;8.660;2023-08-20T09:53:06;29.87;66.24
69359;HTU21D;56520;49.066;8.660;2023-08-20T09:55:35;30.05;65.56
69359;HTU21D;56520;49.066;8.660;2023-08-20T09:58:02;30.21;65.71
69359;HTU21D;56520;49.066;8.660;2023-08-20T10:00:28;30.27;64.25
69359;HTU21D;56520;49.066;8.660;2023-08-20T10:02:54;30.38;64.55
69359;HTU21D;56520;49.066;8.660;2023-08-20T10:05:19;30.59;63.74
69359;HTU21D;56520;49.066;8.660;2023-08-20T10:07:47;30.72;62.61
69359;HTU21D;56520;49.066;8.660;2023-08-20T10:10:12;30.85;62.24
69359;HTU21D;56520;49.066;8.660;2023-08-20T10:12:39;31.01;62.58
69359;HTU21D;56520;49.066;8.660;2023-08-20T10:15:06;31.23;61.63
69359;HTU21D;56520;49.066;8.660;2023-08-20T10:17:33;31.40;60.50
69359;HTU21D;56520;49.066;8.660;2023-08-20T10:19:59;31.50;59.68
69359;HTU21D;56520;49.066;8.660;2023-08-20T10:22:39;31.56;59.50
69359;HTU21D;56520;49.066;8.660;2023-08-20T10:25:11;31.55;59.78
69359;HTU21D;56520;49.066;8.660;2023-08-20T10:27:41;31.49;58.48
69359;HTU21D;56520;49.066;8.660;2023-08-20T10:30:10;31.53;59.41
69359;HTU21D;56520;49.066;8.660;2023-08-20T10:32:56;31.56;57.83
69359;HTU21D;56520;49.066;8.660;2023-08-20T10:35:46;31.68;58.32
69359;HTU21D;56520;49.066;8.660;2023-08-20T10:38:13;31.80;57.78
69359;HTU21D;56520;49.066;8.660;2023-08-20T10:40:54;31.86;57.06
69359;HTU21D;56520;49.066;8.660;2023-08-20T10:46:15;32.29;56.85
69359;HTU21D;56520;49.066;8.660;2023-08-20T10:48:42;32.42;56.08
69359;HTU21D;56520;49.066;8.660;2023-08-20T10:51:13;32.49;56.16
69359;HTU21D;56520;49.066;8.660;2023-08-20T10:53:40;32.54;55.95
69359;HTU21D;56520;49.066;8.660;2023-08-20T10:58:34;32.69;55.57
69359;HTU21D;56520;49.066;8.660;2023-08-20T11:01:19;32.64;54.54
69359;HTU21D;56520;49.066;8.660;2023-08-20T11:03:46;32.58;54.91
69359;HTU21D;56520;49.066;8.660;2023-08-20T11:06:12;32.50;54.52
69359;HTU21D;56520;49.066;8.660;2023-08-20T11:08:38;32.37;54.10
69359;HTU21D;56520;49.066;8.660;2023-08-20T11:11:05;32.32;55.20
69359;HTU21D;56520;49.066;8.660;2023-08-20T11:13:32;32.45;54.91
69359;HTU21D;56520;49.066;8.660;2023-08-20T11:15:58;32.46;54.94
69359;HTU21D;56520;49.066;8.660;2023-08-20T11:18:24;32.64;54.94
69359;HTU21D;56520;49.066;8.660;2023-08-20T11:20:50;32.85;54.66
69359;HTU21D;56520;49.066;8.660;2023-08-20T11:23:16;33.11;54.38
69359;HTU21D;56520;49.066;8.660;2023-08-20T11:25:42;33.18;54.04
69359;HTU21D;56520;49.066;8.660;2023-08-20T11:28:08;33.05;52.53
69359;HTU21D;56520;49.066;8.660;2023-08-20T11:30:34;32.92;53.17
69359;HTU21D;56520;49.066;8.660;2023-08-20T11:33:00;32.99;53.70
69359;HTU21D;56520;49.066;8.660;2023-08-20T11:35:25;33.30;50.40
69359;HTU21D;56520;49.066;8.660;2023-08-20T11:37:54;33.55;51.14
69359;HTU21D;56520;49.066;8.660;2023-08-20T11:40:20;33.74;50.30
69359;HTU21D;56520;49.066;8.660;2023-08-20T11:42:46;33.86;50.76
69359;HTU21D;56520;49.066;8.660;2023-08-20T11:45:11;33.89;50.53
69359;HTU21D;56520;49.066;8.660;2023-08-20T11:47:41;33.76;50.95
69359;HTU21D;56520;49.066;8.660;2023-08-20T11:50:07;33.61;50.96
69359;HTU21D;56520;49.066;8.660;2023-08-20T11:52:33;33.42;51.79
69359;HTU21D;56520;49.066;8.660;2023-08-20T11:54:59;33.25;51.49
69359;HTU21D;56520;49.066;8.660;2023-08-20T11:57:25;33.04;50.34
69359;HTU21D;56520;49.066;8.660;2023-08-20T11:59:51;32.79;51.40
69359;HTU21D;56520;49.066;8.660;2023-08-20T12:02:27;32.87;51.78
69359;HTU21D;56520;49.066;8.660;2023-08-20T12:04:56;33.01;51.97
69359;HTU21D;56520;49.066;8.660;2023-08-20T12:07:25;33.09;51.44
69359;HTU21D;56520;49.066;8.660;2023-08-20T12:09:51;33.03;50.50
69359;HTU21D;56520;49.066;8.660;2023-08-20T12:12:19;32.92;50.84
69359;HTU21D;56520;49.066;8.660;2023-08-20T12:14:44;32.85;50.22
69359;HTU21D;56520;49.066;8.660;2023-08-20T12:17:10;32.71;50.16
69359;HTU21D;56520;49.066;8.660;2023-08-20T12:19:35;32.75;50.65
69359;HTU21D;56520;49.066;8.660;2023-08-20T12:22:01;32.67;50.41
69359;HTU21D;56520;49.066;8.660;2023-08-20T12:24:26;32.83;51.69
69359;HTU21D;56520;49.066;8.660;2023-08-20T12:26:51;33.08;51.75
69359;HTU21D;56520;49.066;8.660;2023-08-20T12:29:18;33.30;51.30
69359;HTU21D;56520;49.066;8.660;2023-08-20T12:31:43;33.42;50.48
69359;HTU21D;56520;49.066;8.660;2023-08-20T12:34:09;33.50;49.98
69359;HTU21D;56520;49.066;8.660;2023-08-20T12:36:34;33.65;48.88
69359;HTU21D;56520;49.066;8.660;2023-08-20T12:39:00;33.75;49.05
69359;HTU21D;56520;49.066;8.660;2023-08-20T12:41:25;33.70;48.73
69359;HTU21D;56520;49.066;8.660;2023-08-20T12:43:51;33.72;48.80
69359;HTU21D;56520;49.066;8.660;2023-08-20T12:46:17;33.80;48.09
69359;HTU21D;56520;49.066;8.660;2023-08-20T12:48:42;33.82;48.47
69359;HTU21D;56520;49.066;8.660;2023-08-20T12:51:08;33.88;48.54
69359;HTU21D;56520;49.066;8.660;2023-08-20T12:53:37;33.93;47.83
69359;HTU21D;56520;49.066;8.660;2023-08-20T12:56:03;34.00;48.08
69359;HTU21D;56520;49.066;8.660;2023-08-20T12:58:28;34.07;47.23
69359;HTU21D;56520;49.066;8.660;2023-08-20T13:00:54;34.08;47.29
69359;HTU21D;56520;49.066;8.660;2023-08-20T13:03:19;34.12;47.78
69359;HTU21D;56520;49.066;8.660;2023-08-20T13:05:45;34.18;47.67
69359;HTU21D;56520;49.066;8.660;2023-08-20T13:08:11;34.11;46.97
69359;HTU21D;56520;49.066;8.660;2023-08-20T13:10:40;34.10;47.29
69359;HTU21D;56520;49.066;8.660;2023-08-20T13:13:09;34.18;47.47
69359;HTU21D;56520;49.066;8.660;2023-08-20T13:15:38;34.18;46.29
69359;HTU21D;56520;49.066;8.660;2023-08-20T13:18:04;34.11;46.38
69359;HTU21D;56520;49.066;8.660;2023-08-20T13:20:30;34.10;47.85
69359;HTU21D;56520;49.066;8.660;2023-08-20T13:22:55;34.21;48.36
69359;HTU21D;56520;49.066;8.660;2023-08-20T13:25:21;34.17;47.65
69359;HTU21D;56520;49.066;8.660;2023-08-20T13:27:47;34.03;48.26
69359;HTU21D;56520;49.066;8.660;2023-08-20T13:30:16;34.02;48.73
69359;HTU21D;56520;49.066;8.660;2023-08-20T13:32:41;34.03;48.87
69359;HTU21D;56520;49.066;8.660;2023-08-20T13:35:07;34.07;48.21
69359;HTU21D;56520;49.066;8.660;2023-08-20T13:37:35;34.10;48.21
69359;HTU21D;56520;49.066;8.660;2023-08-20T13:40:00;33.93;48.46
69359;HTU21D;56520;49.066;8.660;2023-08-20T13:42:26;33.87;48.73
69359;HTU21D;56520;49.066;8.660;2023-08-20T13:44:52;34.03;49.02
69359;HTU21D;56520;49.066;8.660;2023-08-20T13:47:17;34.15;47.88
69359;HTU21D;56520;49.066;8.660;2023-08-20T13:49:43;34.16;47.86
69359;HTU21D;56520;49.066;8.660;2023-08-20T13:52:09;34.15;47.32
69359;HTU21D;56520;49.066;8.660;2023-08-20T13:54:35;34.02;47.68
69359;HTU21D;56520;49.066;8.660;2023-08-20T13:57:01;33.92;47.18
69359;HTU21D;56520;49.066;8.660;2023-08-20T13:59:28;33.86;47.57
69359;HTU21D;56520;49.066;8.660;2023-08-20T14:01:53;33.85;46.78
69359;HTU21D;56520;49.066;8.660;2023-08-20T14:04:19;33.87;47.02
69359;HTU21D;56520;49.066;8.660;2023-08-20T14:06:44;33.81;47.44
69359;HTU21D;56520;49.066;8.660;2023-08-20T14:09:10;33.66;46.85
69359;HTU21D;56520;49.066;8.660;2023-08-20T14:11:35;33.48;46.79
69359;HTU21D;56520;49.066;8.660;2023-08-20T14:14:00;33.28;47.12
69359;HTU21D;56520;49.066;8.660;2023-08-20T14:16:26;33.18;47.49
69359;HTU21D;56520;49.066;8.660;2023-08-20T14:18:54;33.16;47.20
69359;HTU21D;56520;49.066;8.660;2023-08-20T14:21:19;33.27;46.98
69359;HTU21D;56520;49.066;8.660;2023-08-20T14:23:44;33.32;46.36
69359;HTU21D;56520;49.066;8.660;2023-08-20T14:26:10;33.40;46.51
69359;HTU21D;56520;49.066;8.660;2023-08-20T14:28:35;33.38;46.02
69359;HTU21D;56520;49.066;8.660;2023-08-20T14:31:04;33.37;46.29
69359;HTU21D;56520;49.066;8.660;2023-08-20T14:33:30;33.35;45.42
69359;HTU21D;56520;49.066;8.660;2023-08-20T14:35:56;33.38;45.09
69359;HTU21D;56520;49.066;8.660;2023-08-20T14:38:21;33.41;44.95
69359;HTU21D;56520;49.066;8.660;2023-08-20T14:40:47;33.49;44.77
69359;HTU21D;56520;49.066;8.660;2023-08-20T14:43:12;33.51;43.37
69359;HTU21D;56520;49.066;8.660;2023-08-20T14:45:38;33.44;44.52
69359;HTU21D;56520;49.066;8.660;2023-08-20T14:48:03;33.44;44.84
69359;HTU21D;56520;49.066;8.660;2023-08-20T14:50:32;33.55;45.26
69359;HTU21D;56520;49.066;8.660;2023-08-20T14:52:58;33.64;45.67
69359;HTU21D;56520;49.066;8.660;2023-08-20T14:55:23;33.59;44.99
69359;HTU21D;56520;49.066;8.660;2023-08-20T14:57:49;33.55;44.74
69359;HTU21D;56520;49.066;8.660;2023-08-20T15:00:14;33.57;44.45
69359;HTU21D;56520;49.066;8.660;2023-08-20T15:02:40;33.61;43.85
69359;HTU21D;56520;49.066;8.660;2023-08-20T15:05:06;33.67;43.63
69359;HTU21D;56520;49.066;8.660;2023-08-20T15:07:32;33.72;43.48
69359;HTU21D;56520;49.066;8.660;2023-08-20T15:09:57;33.73;43.55
69359;HTU21D;56520;49.066;8.660;2023-08-20T15:12:25;33.76;44.34
69359;HTU21D;56520;49.066;8.660;2023-08-20T15:14:51;33.80;44.14
69359;HTU21D;56520;49.066;8.660;2023-08-20T15:17:17;33.79;44.67
69359;HTU21D;56520;49.066;8.660;2023-08-20T15:19:42;33.81;45.12
69359;HTU21D;56520;49.066;8.660;2023-08-20T15:22:10;33.86;45.47
69359;HTU21D;56520;49.066;8.660;2023-08-20T15:24:35;33.89;45.30
69359;HTU21D;56520;49.066;8.660;2023-08-20T15:27:04;33.87;45.37
69359;HTU21D;56520;49.066;8.660;2023-08-20T15:29:29;33.80;45.80
69359;HTU21D;56520;49.066;8.660;2023-08-20T15:31:54;33.73;45.86